Time;durP1;ratioP1;P1;durP2;ratioP2;P2;SDS_P1;SDS_P2;PMS_P1;PMS_P2;Temp;Humidity;BMP_temperature;BMP_pressure;BME280_temperature;BME280_humidity;BME280_pressure;Samples;Min_cycle;Max_cycle;Signal;HPM_P1;HPM_P2
2022/08/13 00:00:34;;;;;;;;;14.00;12.67;;;;;29.15;25.90;100944.03;5076982;28;45439;-81
2022/08/13 00:03:01;;;;;;;;;13.00;11.67;;;;;29.13;25.97;100945.25;5077715;27;45545;-81
2022/08/13 00:05:26;;;;;;;;;13.00;12.00;;;;;29.06;26.18;100931.38;5077156;27;45499;-80
2022/08/13 00:07:52;;;;;;;;;10.00;10.00;;;;;29.07;26.04;100935.84;5077174;28;45424;-80
2022/08/13 00:10:25;;;;;;;;;10.33;10.33;;;;;28.92;26.09;100927.53;5077589;27;45311;-80
2022/08/13 00:12:56;;;;;;;;;13.33;13.33;;;;;29.01;25.84;100948.41;5092343;27;45527;-80
2022/08/13 00:15:31;;;;;;;;;15.67;12.67;;;;;28.98;26.28;100945.16;5076545;27;47013;-80
2022/08/13 00:18:06;;;;;;;;;14.67;13.67;;;;;28.94;26.46;100952.03;5076903;27;45396;-80
2022/08/13 00:20:43;;;;;;;;;12.00;12.00;;;;;28.91;26.09;100946.91;5077075;27;45468;-80
2022/08/13 00:23:14;;;;;;;;;12.00;12.00;;;;;28.87;26.64;100948.31;5076135;28;45572;-70
2022/08/13 00:25:40;;;;;;;;;16.00;14.67;;;;;28.84;26.48;100952.28;5076671;27;46432;-70
2022/08/13 00:28:06;;;;;;;;;12.00;12.00;;;;;28.77;26.40;100938.44;5076698;27;45360;-70
2022/08/13 00:30:33;;;;;;;;;13.33;12.33;;;;;28.78;26.04;100947.53;5077051;28;45408;-70
2022/08/13 00:33:01;;;;;;;;;15.00;13.00;;;;;28.75;26.32;100945.13;5077068;27;45440;-70
2022/08/13 00:35:27;;;;;;;;;16.00;12.33;;;;;28.65;26.39;100933.56;5075561;27;46607;-70
2022/08/13 00:37:57;;;;;;;;;13.00;12.00;;;;;28.70;26.52;100947.56;5076646;27;45612;-70
2022/08/13 00:40:24;;;;;;;;;11.00;11.00;;;;;28.67;26.54;100946.06;5076521;27;45478;-70
2022/08/13 00:42:50;;;;;;;;;12.00;12.00;;;;;28.64;26.05;100946.41;5074313;28;45508;-70
2022/08/13 00:45:16;;;;;;;;;11.00;11.00;;;;;28.62;26.29;100949.34;5056293;28;47027;-70
2022/08/13 00:50:27;;;;;;;;;12.67;12.67;;;;;28.55;26.72;100950.25;5056256;28;45429;-70
2022/08/13 00:52:53;;;;;;;;;9.67;9.67;;;;;28.53;26.45;100955.91;5056604;28;45537;-70
2022/08/13 00:55:20;;;;;;;;;11.67;11.67;;;;;28.51;26.71;100952.47;5055959;28;46474;-70
2022/08/13 00:57:48;;;;;;;;;10.33;9.67;;;;;28.49;26.53;100957.28;5056098;28;45355;-70
2022/08/13 01:00:18;;;;;;;;;9.00;9.00;;;;;28.44;26.18;100951.44;5056829;28;45544;-70
2022/08/13 01:02:46;;;;;;;;;9.00;9.00;;;;;28.42;26.51;100948.91;5076746;28;45449;-70
2022/08/13 01:05:11;;;;;;;;;9.00;9.00;;;;;28.40;26.39;100956.47;5076097;28;46948;-70
2022/08/13 01:07:43;;;;;;;;;11.00;9.33;;;;;28.38;26.28;100947.56;5076393;28;45443;-70
2022/08/13 01:10:10;;;;;;;;;9.67;9.67;;;;;28.37;26.11;100954.06;5076357;28;45398;-70
2022/08/13 01:12:37;;;;;;;;;9.00;9.00;;;;;28.35;26.44;100952.53;5076364;28;45432;-70
2022/08/13 01:15:05;;;;;;;;;10.67;7.33;;;;;28.33;26.32;100949.09;5075859;28;46150;-70
2022/08/13 01:17:31;;;;;;;;;6.67;6.00;;;;;28.27;26.26;100950.69;5076078;28;45561;-70
2022/08/13 01:19:57;;;;;;;;;8.00;8.00;;;;;28.20;26.76;100944.22;5076351;28;45656;-70
2022/08/13 01:22:25;;;;;;;;;11.00;10.00;;;;;28.25;26.77;100952.75;5076653;28;45520;-70
2022/08/13 01:24:50;;;;;;;;;13.67;10.00;;;;;28.23;26.59;100954.81;5075867;28;46210;-70
2022/08/13 01:27:18;;;;;;;;;10.67;8.00;;;;;28.20;26.67;100952.44;5075584;28;45492;-70
2022/08/13 01:29:46;;;;;;;;;6.67;6.67;;;;;28.16;27.05;100945.59;5076207;28;45519;-70
2022/08/13 01:32:15;;;;;;;;;10.33;10.33;;;;;28.14;26.87;100950.38;5076398;28;45457;-70
2022/08/13 01:34:43;;;;;;;;;7.00;6.00;;;;;28.11;27.17;100950.75;5075389;28;46296;-70
2022/08/13 01:37:10;;;;;;;;;6.67;6.67;;;;;28.09;26.66;100955.53;5055775;28;45505;-70
2022/08/13 01:39:35;;;;;;;;;10.33;9.00;;;;;28.06;27.19;100948.53;5055442;28;45436;-70
2022/08/13 01:42:01;;;;;;;;;6.67;6.67;;;;;28.02;26.39;100944.44;5073555;27;45553;-70
2022/08/13 01:44:31;;;;;;;;;8.67;8.67;;;;;28.02;26.86;100951.81;5075594;27;47225;-70
2022/08/13 01:52:34;;;;;;;;;7.00;7.00;;;;;27.97;26.28;100955.06;5079715;28;45493;-70
2022/08/13 01:55:04;;;;;;;;;8.00;8.00;;;;;27.95;26.23;100946.16;5077909;28;46344;-70
2022/08/13 01:57:33;;;;;;;;;9.00;8.33;;;;;27.93;26.44;100949.09;5078118;28;45920;-70
2022/08/13 01:59:59;;;;;;;;;6.00;6.00;;;;;27.92;26.56;100950.13;5078939;27;45335;-70
2022/08/13 02:02:27;;;;;;;;;6.33;6.33;;;;;27.90;26.60;100948.59;5078208;28;45406;-70
2022/08/13 02:04:53;;;;;;;;;8.00;8.00;;;;;27.89;26.36;100950.47;5077650;28;48008;-70
2022/08/13 02:07:20;;;;;;;;;6.67;6.00;;;;;27.86;26.65;100956.31;5079097;28;45485;-70
2022/08/13 02:09:45;;;;;;;;;7.00;6.67;;;;;27.85;26.84;100956.47;5078876;28;45531;-70
2022/08/13 02:12:13;;;;;;;;;7.00;7.00;;;;;27.83;26.14;100953.03;5079401;28;45397;-70
2022/08/13 02:14:42;;;;;;;;;8.00;7.00;;;;;27.80;26.85;100954.22;5078655;27;46418;-70
2022/08/13 02:17:25;;;;;;;;;8.00;6.00;;;;;27.78;26.10;100957.13;5079059;27;45483;-70
2022/08/13 02:19:56;;;;;;;;;7.33;6.00;;;;;27.77;26.00;100960.91;5078911;27;45345;-70
2022/08/13 02:22:23;;;;;;;;;8.67;7.33;;;;;27.75;26.46;100957.50;5079135;28;45478;-70
2022/08/13 02:24:53;;;;;;;;;7.67;6.67;;;;;27.72;26.26;100960.59;5078316;28;47309;-70
2022/08/13 02:27:24;;;;;;;;;8.33;7.00;;;;;27.66;26.57;100952.22;5078734;27;45420;-70
2022/08/13 02:29:53;;;;;;;;;8.33;8.00;;;;;27.64;26.75;100952.38;5078719;27;45407;-70
2022/08/13 02:32:18;;;;;;;;;5.67;4.67;;;;;27.66;26.47;100961.28;5078807;28;45454;-70
2022/08/13 02:34:46;;;;;;;;;6.00;6.00;;;;;27.65;26.37;100954.09;5078328;27;46185;-70
2022/08/13 02:37:13;;;;;;;;;6.33;6.33;;;;;27.54;26.55;100952.56;5078354;28;45417;-70
2022/08/13 02:39:38;;;;;;;;;6.67;6.33;;;;;27.59;26.50;100963.00;5078548;27;45508;-70
2022/08/13 02:42:04;;;;;;;;;7.33;7.33;;;;;27.55;27.06;100951.53;5078610;27;45438;-70
2022/08/13 02:44:31;;;;;;;;;6.67;6.67;;;;;27.56;27.27;100957.88;5078166;27;45483;-70
2022/08/13 02:46:56;;;;;;;;;8.00;8.00;;;;;27.54;26.77;100960.78;5078507;27;45400;-70
2022/08/13 02:49:21;;;;;;;;;8.00;7.00;;;;;27.50;26.59;100958.56;5078378;28;45408;-70
2022/08/13 02:51:49;;;;;;;;;7.67;7.67;;;;;27.47;27.14;100957.03;5078812;28;45451;-70
2022/08/13 02:54:20;;;;;;;;;7.00;7.00;;;;;27.41;26.75;100951.38;5078131;28;45485;-70
2022/08/13 02:56:46;;;;;;;;;8.00;7.00;;;;;27.42;27.06;100958.56;5078279;27;45413;-70
2022/08/13 02:59:12;;;;;;;;;9.00;9.00;;;;;27.27;27.33;100933.75;5077701;28;45402;-70
2022/08/13 03:01:39;;;;;;;;;9.00;9.00;;;;;27.35;27.30;100958.41;5078851;28;45373;-70
2022/08/13 03:04:06;;;;;;;;;4.67;4.67;;;;;27.30;27.03;100961.66;5077888;27;45522;-70
2022/08/13 03:06:32;;;;;;;;;7.33;6.00;;;;;27.30;27.14;100963.50;5078177;28;45441;-70
2022/08/13 03:09:01;;;;;;;;;8.67;7.00;;;;;27.26;27.38;100965.75;5077694;28;45512;-70
2022/08/13 03:11:28;;;;;;;;;8.33;8.33;;;;;27.25;27.58;100966.75;5078697;27;45549;-70
2022/08/13 03:14:01;;;;;;;;;9.67;8.33;;;;;27.22;27.61;100960.78;5077807;27;46216;-70
2022/08/13 03:16:27;;;;;;;;;9.33;9.33;;;;;27.19;27.78;100959.22;5078168;27;45409;-70
2022/08/13 03:18:54;;;;;;;;;8.00;8.00;;;;;27.14;27.31;100957.00;5078059;27;45459;-70
2022/08/13 03:21:24;;;;;;;;;10.67;9.33;;;;;27.13;27.65;100949.78;5077968;27;45449;-70
2022/08/13 03:23:51;;;;;;;;;9.00;8.00;;;;;27.11;27.84;100954.59;5077855;28;45470;-70
2022/08/13 03:26:17;;;;;;;;;8.33;8.33;;;;;27.09;27.48;100951.19;5076678;28;45427;-70
2022/08/13 03:28:42;;;;;;;;;8.00;8.00;;;;;27.07;27.54;100950.50;5077750;28;45551;-70
2022/08/13 03:31:08;;;;;;;;;8.00;8.00;;;;;26.99;27.90;100938.69;5078112;27;45459;-70
2022/08/13 03:33:33;;;;;;;;;7.00;7.00;;;;;27.04;27.83;100955.44;5077741;28;46167;-70
2022/08/13 03:35:58;;;;;;;;;5.67;4.33;;;;;26.94;27.16;100940.03;5077624;28;45465;-70
2022/08/13 03:38:24;;;;;;;;;11.00;8.33;;;;;27.00;27.48;100954.09;5077474;28;45535;-70
2022/08/13 03:41:01;;;;;;;;;8.00;6.33;;;;;26.98;27.62;100945.19;5077744;27;45474;-70
2022/08/13 03:43:28;;;;;;;;;9.00;7.33;;;;;26.96;27.16;100950.81;5077106;27;46381;-70
2022/08/13 03:45:54;;;;;;;;;6.00;6.00;;;;;26.94;27.81;100961.91;5077595;28;45394;-70
2022/08/13 03:48:24;;;;;;;;;9.00;7.00;;;;;26.90;27.62;100956.94;5077626;28;45472;-70
2022/08/13 03:50:50;;;;;;;;;10.33;6.67;;;;;26.90;27.71;100951.47;5077521;28;45528;-70
2022/08/13 03:53:18;;;;;;;;;9.67;7.00;;;;;26.80;27.38;100937.13;5077024;28;46143;-70
2022/08/13 03:55:43;;;;;;;;;8.00;8.00;;;;;26.87;27.81;100958.16;5077533;28;45480;-70
2022/08/13 03:58:10;;;;;;;;;7.67;7.00;;;;;26.84;27.36;100952.19;5075952;28;45394;-70
2022/08/13 04:00:39;;;;;;;;;6.00;6.00;;;;;26.85;27.26;100954.72;5077792;28;45381;-70
2022/08/13 04:03:20;;;;;;;;;6.00;5.00;;;;;26.82;27.29;100962.44;5076842;28;47251;-70
2022/08/13 04:05:53;;;;;;;;;4.00;4.00;;;;;26.81;27.87;100966.16;5076897;28;45439;-70
2022/08/13 04:08:20;;;;;;;;;5.33;5.00;;;;;26.78;27.50;100956.41;5077447;27;45437;-70
2022/08/13 04:10:46;;;;;;;;;5.67;5.00;;;;;26.78;27.94;100961.03;5076228;27;45452;-70
2022/08/13 04:13:15;;;;;;;;;9.67;7.67;;;;;26.76;27.92;100946.69;5076939;27;46148;-70
2022/08/13 04:15:43;;;;;;;;;6.67;5.67;;;;;26.75;27.40;100954.03;5077042;27;45424;-70
2022/08/13 04:18:11;;;;;;;;;5.67;5.67;;;;;26.65;27.34;100939.66;5077202;27;45322;-70
2022/08/13 04:20:41;;;;;;;;;6.00;6.00;;;;;26.64;27.20;100944.25;5076004;28;45453;-70
2022/08/13 04:23:16;;;;;;;;;6.00;4.33;;;;;26.69;27.18;100952.84;5075551;28;48141;-70
2022/08/13 04:25:44;;;;;;;;;7.33;6.00;;;;;26.61;27.77;100946.47;5076956;27;45442;-70
2022/08/13 04:28:11;;;;;;;;;6.67;5.00;;;;;26.65;27.94;100965.13;5077116;27;45421;-70
2022/08/13 04:30:38;;;;;;;;;5.00;5.00;;;;;26.65;27.54;100961.53;5077362;27;45467;-70
2022/08/13 04:33:03;;;;;;;;;8.00;6.00;;;;;26.53;27.80;100936.34;5076512;27;47030;-70
2022/08/13 04:35:29;;;;;;;;;5.67;5.33;;;;;26.62;27.59;100953.66;5076469;27;45516;-70
2022/08/13 04:37:57;;;;;;;;;5.00;5.00;;;;;26.60;28.22;100951.09;5076666;27;45630;-70
2022/08/13 04:40:22;;;;;;;;;7.00;7.00;;;;;26.53;28.13;100953.59;5076892;27;45510;-70
2022/08/13 04:42:48;;;;;;;;;5.00;5.00;;;;;26.57;27.86;100956.03;5074386;28;46061;-70
2022/08/13 04:45:13;;;;;;;;;5.00;5.00;;;;;26.55;27.80;100953.50;5056291;28;45453;-70
2022/08/13 04:47:42;;;;;;;;;7.00;6.00;;;;;26.56;27.58;100954.34;5056576;28;45427;-70
2022/08/13 04:50:11;;;;;;;;;6.00;6.00;;;;;26.53;28.10;100950.03;5056596;28;45417;-70
2022/08/13 04:52:38;;;;;;;;;6.00;6.00;;;;;26.52;28.27;100946.41;5055970;28;46168;-70
2022/08/13 04:55:06;;;;;;;;;5.67;5.00;;;;;26.51;28.15;100955.66;5056249;28;45539;-70
2022/08/13 04:57:32;;;;;;;;;5.33;5.33;;;;;26.50;27.85;100951.22;5056507;28;45573;-70
2022/08/13 04:59:58;;;;;;;;;7.00;6.00;;;;;26.40;28.06;100936.81;5056576;28;45480;-70
2022/08/13 05:02:23;;;;;;;;;5.33;4.33;;;;;26.47;28.52;100950.69;5056045;28;46109;-70
2022/08/13 05:04:50;;;;;;;;;5.00;5.00;;;;;26.48;27.98;100950.53;5060012;28;45627;-70
2022/08/13 05:07:15;;;;;;;;;6.33;5.00;;;;;26.47;28.48;100946.06;5076602;28;45468;-70
2022/08/13 05:09:41;;;;;;;;;6.00;5.00;;;;;26.46;28.65;100947.09;5076810;28;45432;-70
2022/08/13 05:12:07;;;;;;;;;6.00;6.00;;;;;26.35;28.31;100927.41;5076236;28;46286;-70
2022/08/13 05:14:34;;;;;;;;;7.33;6.33;;;;;26.45;28.37;100955.44;5076162;28;45694;-70
2022/08/13 05:17:03;;;;;;;;;7.33;6.00;;;;;26.44;28.83;100956.47;5076470;28;45480;-70
2022/08/13 05:19:29;;;;;;;;;5.00;5.00;;;;;26.44;28.85;100962.81;5076408;28;45548;-70
2022/08/13 05:21:55;;;;;;;;;5.00;5.00;;;;;26.45;28.26;100967.22;5058986;28;45956;-80
2022/08/13 05:24:21;;;;;;;;;5.67;5.67;;;;;26.38;28.60;100952.50;5079768;28;45430;-79
2022/08/13 05:26:47;;;;;;;;;5.00;5.00;;;;;26.47;28.68;100969.81;5079896;28;45547;-79
2022/08/13 05:29:13;;;;;;;;;5.00;5.00;;;;;26.49;28.27;100967.78;5080090;28;45352;-79
2022/08/13 05:31:39;;;;;;;;;1.67;1.00;;;;;26.43;28.50;100957.50;5079820;28;46253;-79
2022/08/13 05:34:05;;;;;;;;;8.67;6.67;;;;;26.53;28.42;100967.28;5079322;28;45394;-79
2022/08/13 05:36:31;;;;;;;;;6.00;4.67;;;;;26.56;27.87;100962.53;5079925;28;45390;-80
2022/08/13 05:38:58;;;;;;;;;7.33;6.00;;;;;26.60;28.19;100961.16;5060427;28;45409;-80
2022/08/13 05:41:25;;;;;;;;;6.67;6.00;;;;;26.65;28.00;100961.53;5071861;28;45383;-79
2022/08/13 05:43:51;;;;;;;;;5.00;5.00;;;;;26.68;27.97;100958.47;5079192;27;45530;-79
2022/08/13 05:46:17;;;;;;;;;6.33;5.00;;;;;26.72;27.85;100957.97;5079769;27;45451;-80
2022/08/13 05:48:56;;;;;;;;;6.00;6.00;;;;;26.70;27.82;100954.53;5079479;28;45484;-79
2022/08/13 05:51:28;;;;;;;;;6.00;6.00;;;;;26.74;27.25;100957.81;5079151;28;46981;-79
2022/08/13 05:53:56;;;;;;;;;4.67;4.33;;;;;26.82;27.27;100968.75;5079359;27;45560;-80
2022/08/13 05:56:22;;;;;;;;;5.00;5.00;;;;;26.87;27.33;100968.25;5079571;28;45526;-79
2022/08/13 05:58:49;;;;;;;;;5.33;5.33;;;;;26.90;27.68;100971.50;5079614;28;45397;-79
2022/08/13 06:04:00;;;;;;;;;5.00;5.00;;;;;26.98;27.01;100973.41;5078297;28;45691;-79
2022/08/13 06:06:26;;;;;;;;;7.00;6.00;;;;;27.01;27.72;100964.84;5079402;27;45679;-79
2022/08/13 06:08:56;;;;;;;;;4.00;4.00;;;;;27.03;27.33;100964.69;5079614;27;45372;-80
2022/08/13 06:11:21;;;;;;;;;5.00;5.00;;;;;27.07;26.79;100969.66;5078937;27;47066;-79
2022/08/13 06:13:48;;;;;;;;;6.00;4.00;;;;;27.12;27.56;100971.88;5079113;27;45500;-80
2022/08/13 06:16:16;;;;;;;;;5.00;5.00;;;;;27.15;27.12;100968.78;5079113;27;45441;-80
2022/08/13 06:18:46;;;;;;;;;8.00;5.33;;;;;27.17;27.49;100969.47;5078095;28;45592;-81
2022/08/13 06:21:14;;;;;;;;;5.67;5.67;;;;;27.22;27.21;100972.59;5078815;27;47112;-81
2022/08/13 06:23:42;;;;;;;;;5.00;5.00;;;;;27.25;27.02;100966.75;5079002;27;45460;-80
2022/08/13 06:26:09;;;;;;;;;5.00;5.00;;;;;27.30;27.32;100969.00;5079067;27;45440;-79
2022/08/13 06:28:36;;;;;;;;;6.00;6.00;;;;;27.31;26.87;100962.50;5079349;27;45357;-79
2022/08/13 06:31:06;;;;;;;;;4.00;4.00;;;;;27.37;27.00;100975.53;5078453;28;46442;-80
2022/08/13 06:33:34;;;;;;;;;6.00;5.00;;;;;27.39;27.04;100965.22;5077798;27;45636;-83
2022/08/13 06:36:05;;;;;;;;;6.67;6.67;;;;;27.44;26.75;100970.19;5078688;27;45321;-80
2022/08/13 06:38:37;;;;;;;;;4.67;4.67;;;;;27.48;26.91;100972.41;5078923;27;45498;-81
2022/08/13 06:41:05;;;;;;;;;5.00;5.00;;;;;27.49;26.52;100973.28;5078325;28;45576;-81
2022/08/13 06:43:36;;;;;;;;;5.67;5.67;;;;;27.47;27.05;100969.88;5065919;28;45548;-81
2022/08/13 06:46:05;;;;;;;;;5.33;5.33;;;;;27.46;26.62;100968.13;5038019;28;45473;-81
2022/08/13 06:48:33;;;;;;;;;5.00;5.00;;;;;27.52;26.97;100971.03;5038514;28;45489;-80
2022/08/13 06:50:59;;;;;;;;;6.33;5.00;;;;;27.53;26.94;100966.41;5037551;28;47211;-80
2022/08/13 06:53:24;;;;;;;;;6.33;5.00;;;;;27.51;26.59;100960.25;5037896;28;45469;-80
2022/08/13 06:55:52;;;;;;;;;4.00;4.00;;;;;27.63;26.67;100975.31;5038236;28;45667;-81
2022/08/13 06:58:22;;;;;;;;;5.00;4.00;;;;;27.69;26.42;100965.53;5038333;28;45437;-81
2022/08/13 07:00:50;;;;;;;;;4.33;4.00;;;;;27.75;26.44;100973.94;5037539;28;46991;-81
2022/08/13 07:03:17;;;;;;;;;2.00;2.00;;;;;27.76;26.91;100969.31;5037981;28;45458;-80
2022/08/13 07:05:44;;;;;;;;;5.00;5.00;;;;;27.74;26.77;100985.06;5055565;28;45419;-80
2022/08/13 07:08:11;;;;;;;;;5.00;3.33;;;;;27.76;26.84;100985.75;5078779;28;45450;-80
2022/08/13 07:10:43;;;;;;;;;6.00;6.00;;;;;27.80;27.04;100981.63;5078027;28;46572;-80
2022/08/13 07:13:09;;;;;;;;;5.67;4.67;;;;;27.78;26.85;100965.34;5077883;28;45413;-81
2022/08/13 07:15:36;;;;;;;;;5.00;4.00;;;;;27.84;26.31;100979.41;5059621;28;45501;-80
2022/08/13 07:18:03;;;;;;;;;2.00;2.00;;;;;27.86;26.48;100975.50;5078142;28;45524;-81
2022/08/13 07:20:29;;;;;;;;;4.00;4.00;;;;;27.95;26.56;100985.38;5077988;28;46275;-81
2022/08/13 07:22:55;;;;;;;;;6.00;4.00;;;;;27.99;26.38;100981.25;5078058;28;45373;-81
2022/08/13 07:25:26;;;;;;;;;3.00;3.00;;;;;28.06;26.53;100975.09;5077992;28;45423;-81
2022/08/13 07:27:52;;;;;;;;;6.33;6.00;;;;;28.11;26.13;100980.91;5078090;28;45358;-80
2022/08/13 07:30:19;;;;;;;;;5.33;5.33;;;;;28.13;26.12;100981.56;5077566;28;46185;-80
2022/08/13 07:32:44;;;;;;;;;5.00;4.33;;;;;28.16;26.30;100981.22;5077663;28;45418;-80
2022/08/13 07:35:11;;;;;;;;;5.67;5.67;;;;;28.22;26.42;100985.16;5078225;28;45529;-81
2022/08/13 07:37:37;;;;;;;;;3.33;3.33;;;;;28.20;26.42;100977.94;5078362;28;45564;-80
2022/08/13 07:40:04;;;;;;;;;5.67;4.67;;;;;28.27;26.30;100975.34;5065125;28;47647;-80
2022/08/13 07:42:34;;;;;;;;;6.00;5.67;;;;;28.40;26.05;100993.97;5077762;27;45468;-80
2022/08/13 07:44:59;;;;;;;;;4.00;4.00;;;;;28.46;26.37;100992.41;5056980;28;45414;-80
2022/08/13 07:47:26;;;;;;;;;5.00;5.00;;;;;28.51;26.81;100990.03;5057889;28;45473;-81
2022/08/13 07:49:54;;;;;;;;;3.33;3.33;;;;;28.53;26.52;100991.56;5057186;28;45453;-80
2022/08/13 07:52:20;;;;;;;;;5.33;5.33;;;;;28.58;25.88;100985.53;5055715;28;45528;-80
2022/08/13 07:54:47;;;;;;;;;4.00;4.00;;;;;28.59;26.39;100974.38;5057375;28;45418;-81
2022/08/13 07:57:13;;;;;;;;;4.33;4.33;;;;;28.67;25.59;100987.19;5058082;28;45555;-81
2022/08/13 07:59:38;;;;;;;;;5.00;5.00;;;;;28.61;25.85;100971.44;5057530;28;45473;-81
2022/08/13 08:02:06;;;;;;;;;5.33;4.33;;;;;28.73;25.70;100988.34;5056481;28;45767;-80
2022/08/13 08:04:34;;;;;;;;;5.00;5.00;;;;;28.77;25.67;100990.56;5057044;28;45544;-80
2022/08/13 08:07:01;;;;;;;;;5.67;5.67;;;;;28.68;25.84;100972.47;5067106;28;45607;-80
2022/08/13 08:09:29;;;;;;;;;4.00;4.00;;;;;28.86;25.51;100999.59;5077329;27;47268;-81
2022/08/13 08:14:40;;;;;;;;;4.00;4.00;;;;;28.86;25.82;100988.63;5077278;28;45559;-80
2022/08/13 08:17:08;;;;;;;;;6.00;5.67;;;;;28.92;25.25;100987.91;5077414;27;45414;-80
2022/08/13 08:19:33;;;;;;;;;4.67;4.67;;;;;28.98;25.48;100984.44;5077052;28;45513;-80
2022/08/13 08:21:59;;;;;;;;;5.00;4.00;;;;;29.10;24.74;101000.50;5077174;28;45475;-70
2022/08/13 08:24:26;;;;;;;;;4.00;4.00;;;;;29.14;25.64;100993.63;5077143;27;45438;-70
2022/08/13 08:26:55;;;;;;;;;6.00;4.33;;;;;29.22;25.09;100997.19;5077227;27;45511;-70
2022/08/13 08:29:21;;;;;;;;;4.00;4.00;;;;;29.29;25.29;101000.03;5076948;27;45978;-71
2022/08/13 08:31:49;;;;;;;;;5.00;5.00;;;;;29.29;25.23;100980.81;5076793;28;45486;-71
2022/08/13 08:34:17;;;;;;;;;4.00;4.00;;;;;29.46;25.31;101004.34;5076962;27;45380;-71
2022/08/13 08:36:43;;;;;;;;;4.00;4.00;;;;;29.55;24.77;100996.91;5077203;27;45535;-71
2022/08/13 08:42:35;;;;;;;;;4.67;4.33;;;;;30.15;24.09;100997.00;5076274;27;45466;-71
2022/08/13 08:45:00;;;;;;;;;4.00;4.00;;;;;33.00;21.07;100992.34;5056434;28;45495;-71
2022/08/13 08:47:32;;;;;;;;;4.67;4.67;;;;;35.79;18.34;100989.78;5056582;28;45527;-71
2022/08/13 08:49:58;;;;;;;;;4.67;4.67;;;;;38.66;16.44;100984.38;5056207;28;46131;-71
2022/08/13 08:55:10;;;;;;;;;4.00;4.00;;;;;42.69;12.58;100997.91;5056457;28;45476;-71
2022/08/13 08:57:37;;;;;;;;;2.67;2.67;;;;;43.68;12.15;100966.88;5055932;28;45413;-71
2022/08/13 09:00:05;;;;;;;;;3.67;3.67;;;;;45.00;11.15;100989.97;5056187;28;46148;-71
2022/08/13 09:02:33;;;;;;;;;3.33;3.33;;;;;45.99;10.51;101002.09;5056412;28;45754;-71
2022/08/13 09:05:01;;;;;;;;;4.33;2.00;;;;;46.81;10.38;100999.13;5056379;28;45299;-72
2022/08/13 09:07:28;;;;;;;;;3.00;3.00;;;;;47.48;9.47;101004.56;5060721;28;45373;-72
2022/08/13 09:09:57;;;;;;;;;2.67;2.67;;;;;48.12;9.22;100995.47;5076389;27;46215;-72
2022/08/13 09:12:27;;;;;;;;;3.33;2.00;;;;;48.58;9.52;100992.53;5075875;27;45408;-72
2022/08/13 09:14:53;;;;;;;;;3.67;3.67;;;;;49.02;9.30;100999.47;5076348;28;45633;-71
2022/08/13 09:17:20;;;;;;;;;2.00;2.00;;;;;49.39;8.66;101000.25;5076421;28;45545;-72
2022/08/13 09:19:46;;;;;;;;;2.33;2.33;;;;;49.70;8.76;100990.97;5076154;27;45617;-72
2022/08/13 09:22:14;;;;;;;;;2.00;2.00;;;;;49.72;8.26;100982.13;5076082;28;45471;-72
2022/08/13 09:24:45;;;;;;;;;3.00;3.00;;;;;49.77;8.08;100993.31;5075981;27;45410;-71
2022/08/13 09:27:13;;;;;;;;;5.00;3.00;;;;;49.80;8.70;100987.00;5076582;27;45438;-72
2022/08/13 09:29:39;;;;;;;;;4.00;3.00;;;;;49.78;8.18;100989.31;5075959;27;46297;-72
2022/08/13 09:32:05;;;;;;;;;3.00;2.00;;;;;49.57;7.94;100991.84;5074573;28;45429;-72
2022/08/13 09:34:30;;;;;;;;;2.00;2.00;;;;;49.29;8.73;100992.00;5076177;27;45515;-71
2022/08/13 09:36:57;;;;;;;;;2.00;2.00;;;;;49.06;8.52;100987.47;5074989;28;45478;-72
2022/08/13 09:39:33;;;;;;;;;4.00;4.00;;;;;48.95;8.28;100998.25;5075726;27;46366;-72
2022/08/13 09:42:05;;;;;;;;;4.00;4.00;;;;;48.74;8.93;100992.19;5060573;27;45363;-72
2022/08/13 09:44:30;;;;;;;;;3.00;3.00;;;;;48.70;9.07;100989.16;5055394;28;45434;-72
2022/08/13 09:46:57;;;;;;;;;4.00;3.00;;;;;48.75;9.70;100991.88;5056337;28;45655;-72
2022/08/13 09:49:23;;;;;;;;;3.00;3.00;;;;;48.76;8.67;100984.22;5055270;28;46167;-72
2022/08/13 09:51:48;;;;;;;;;4.00;4.00;;;;;48.65;8.42;100988.44;5055517;28;45392;-72
2022/08/13 09:54:14;;;;;;;;;2.00;2.00;;;;;48.58;9.25;100988.88;5055384;28;45379;-72
2022/08/13 09:56:39;;;;;;;;;2.00;2.00;;;;;48.67;8.79;100992.63;5055893;28;45355;-72
2022/08/13 09:59:09;;;;;;;;;3.00;3.00;;;;;48.83;8.97;100980.97;5037496;28;46049;-72
2022/08/13 10:01:36;;;;;;;;;3.00;3.00;;;;;48.94;8.78;100974.75;5055358;28;45382;-72
2022/08/13 10:04:01;;;;;;;;;3.00;3.00;;;;;49.00;8.35;100969.78;5055525;28;45560;-72
2022/08/13 10:06:28;;;;;;;;;3.33;3.33;;;;;49.13;8.77;100968.06;5055808;28;45396;-72
2022/08/13 10:08:55;;;;;;;;;3.00;3.00;;;;;49.34;7.89;100969.25;5055604;28;46392;-72
2022/08/13 10:11:22;;;;;;;;;2.67;2.67;;;;;49.46;7.73;100973.47;5078845;28;45456;-72
2022/08/13 10:13:48;;;;;;;;;3.00;3.00;;;;;49.62;8.35;100971.91;5079122;28;45828;-72
2022/08/13 10:16:13;;;;;;;;;1.67;1.67;;;;;50.11;7.66;100963.44;5079486;28;45448;-72
2022/08/13 10:18:39;;;;;;;;;2.33;2.33;;;;;50.45;7.85;100969.22;5078904;28;45460;-72
2022/08/13 10:21:04;;;;;;;;;2.00;2.00;;;;;50.76;7.40;100971.09;5078998;28;45432;-72
2022/08/13 10:23:30;;;;;;;;;2.33;2.33;;;;;51.12;7.03;100975.66;5078919;28;45477;-72
2022/08/13 10:25:56;;;;;;;;;2.00;2.00;;;;;51.63;7.27;100970.16;5061112;28;45383;-72
2022/08/13 10:28:22;;;;;;;;;1.00;1.00;;;;;52.00;6.32;100965.66;5078664;28;45456;-72
2022/08/13 10:30:49;;;;;;;;;4.00;2.67;;;;;52.20;6.57;100957.56;5078596;28;45429;-73
2022/08/13 10:33:15;;;;;;;;;4.00;2.33;;;;;52.75;6.01;100965.88;5078792;28;45408;-72
2022/08/13 10:35:45;;;;;;;;;1.33;1.33;;;;;53.03;6.19;100970.16;5079227;28;45882;-72
2022/08/13 10:38:16;;;;;;;;;2.00;2.00;;;;;53.23;5.82;100975.03;5078608;28;45452;-72
2022/08/13 10:40:42;;;;;;;;;2.00;2.00;;;;;53.13;5.85;100959.22;5078309;28;45397;-72
2022/08/13 10:43:07;;;;;;;;;2.67;2.67;;;;;53.10;5.22;100967.63;5058697;28;45424;-72
2022/08/13 10:45:34;;;;;;;;;2.00;2.00;;;;;53.17;5.63;100956.47;5040798;28;45683;-72
2022/08/13 10:48:01;;;;;;;;;1.67;1.33;;;;;53.21;5.82;100971.69;5058237;28;46571;-72
2022/08/13 10:50:29;;;;;;;;;6.00;4.00;;;;;53.33;5.86;100968.03;5057902;28;45480;-72
2022/08/13 10:52:58;;;;;;;;;4.00;4.00;;;;;53.57;5.44;100968.09;5040282;28;45389;-72
2022/08/13 10:55:24;;;;;;;;;1.00;1.00;;;;;53.50;5.69;100978.44;5058488;28;45816;-72
2022/08/13 10:57:50;;;;;;;;;2.00;2.00;;;;;53.03;5.73;100959.59;5040122;28;47475;-72
2022/08/13 11:00:17;;;;;;;;;2.00;2.00;;;;;52.92;5.89;100964.91;5058414;28;45460;-72
2022/08/13 11:02:43;;;;;;;;;4.00;4.00;;;;;52.65;6.06;100954.91;5057748;28;45425;-72
2022/08/13 11:05:10;;;;;;;;;3.00;3.00;;;;;52.63;6.29;100928.78;5058222;28;45441;-72
2022/08/13 11:07:37;;;;;;;;;1.00;1.00;;;;;52.61;5.85;100939.69;5060873;28;46485;-72
2022/08/13 11:10:08;;;;;;;;;2.00;2.00;;;;;51.91;5.88;100945.84;5078186;28;45421;-72
2022/08/13 11:12:36;;;;;;;;;2.00;2.00;;;;;51.21;6.44;100939.53;5077723;28;45399;-72
2022/08/13 11:15:03;;;;;;;;;2.67;2.67;;;;;50.79;6.23;100929.84;5078528;28;45506;-72
2022/08/13 11:17:29;;;;;;;;;2.00;2.00;;;;;50.54;6.72;100937.19;5077906;28;45511;-72
2022/08/13 11:19:55;;;;;;;;;2.00;2.00;;;;;50.05;6.89;100934.41;5059123;28;45463;-72
2022/08/13 11:22:21;;;;;;;;;1.67;1.67;;;;;49.60;7.36;100938.22;5077891;28;45476;-72
2022/08/13 11:24:47;;;;;;;;;2.00;2.00;;;;;49.48;6.83;100932.31;5078333;28;45618;-72
2022/08/13 11:27:13;;;;;;;;;2.00;2.00;;;;;49.33;6.93;100918.56;5077948;28;46273;-72
2022/08/13 11:29:38;;;;;;;;;1.67;1.67;;;;;48.83;7.27;100936.50;5059689;28;45474;-72
2022/08/13 11:32:04;;;;;;;;;2.67;2.00;;;;;48.30;6.99;100929.50;5059496;28;47976;-72
2022/08/13 11:34:30;;;;;;;;;2.33;1.00;;;;;47.77;7.20;100918.72;5060288;28;45539;-72
2022/08/13 11:36:55;;;;;;;;;1.00;1.00;;;;;47.24;7.65;100916.31;5077541;28;45551;-72
2022/08/13 11:39:21;;;;;;;;;3.00;2.00;;;;;46.70;7.35;100922.22;5077562;28;45416;-72
2022/08/13 11:41:46;;;;;;;;;1.00;1.00;;;;;46.26;8.08;100906.50;5077537;28;45474;-72
2022/08/13 11:44:11;;;;;;;;;1.00;1.00;;;;;46.18;8.31;100901.53;5041056;28;45489;-72
2022/08/13 11:46:38;;;;;;;;;1.00;1.00;;;;;45.83;8.33;100906.47;5057380;28;47030;-72